sensor_id;sensor_type;location;lat;lon;timestamp;temperature;humidity
70336;SHT31;57756;47.408;18.940;2023-05-07T00:01:38;14.78;93.90
70336;SHT31;57756;47.408;18.940;2023-05-07T00:04:04;14.74;94.51
70336;SHT31;57756;47.408;18.940;2023-05-07T00:06:31;14.71;93.90
70336;SHT31;57756;47.408;18.940;2023-05-07T00:08:57;14.66;93.96
70336;SHT31;57756;47.408;18.940;2023-05-07T00:11:23;14.59;93.64
70336;SHT31;57756;47.408;18.940;2023-05-07T00:13:49;14.57;93.60
70336;SHT31;57756;47.408;18.940;2023-05-07T00:16:14;14.50;93.58
70336;SHT31;57756;47.408;18.940;2023-05-07T00:18:40;14.44;94.41
70336;SHT31;57756;47.408;18.940;2023-05-07T00:21:05;14.40;94.73
70336;SHT31;57756;47.408;18.940;2023-05-07T00:23:31;14.39;94.54
70336;SHT31;57756;47.408;18.940;2023-05-07T00:25:56;14.34;94.27
70336;SHT31;57756;47.408;18.940;2023-05-07T00:28:22;14.37;94.44
70336;SHT31;57756;47.408;18.940;2023-05-07T00:30:47;14.33;94.21
70336;SHT31;57756;47.408;18.940;2023-05-07T00:33:12;14.28;94.11
70336;SHT31;57756;47.408;18.940;2023-05-07T00:35:38;14.25;93.72
70336;SHT31;57756;47.408;18.940;2023-05-07T00:38:03;14.20;93.86
70336;SHT31;57756;47.408;18.940;2023-05-07T00:40:29;14.20;93.91
70336;SHT31;57756;47.408;18.940;2023-05-07T00:42:54;14.13;93.79
70336;SHT31;57756;47.408;18.940;2023-05-07T00:45:22;14.13;93.82
70336;SHT31;57756;47.408;18.940;2023-05-07T00:47:51;14.06;94.16
70336;SHT31;57756;47.408;18.940;2023-05-07T00:50:16;14.05;93.70
70336;SHT31;57756;47.408;18.940;2023-05-07T00:52:44;14.01;94.18
70336;SHT31;57756;47.408;18.940;2023-05-07T00:55:10;13.94;93.81
70336;SHT31;57756;47.408;18.940;2023-05-07T00:57:36;13.89;93.96
70336;SHT31;57756;47.408;18.940;2023-05-07T01:00:06;13.82;94.18
70336;SHT31;57756;47.408;18.940;2023-05-07T01:02:34;13.77;94.46
70336;SHT31;57756;47.408;18.940;2023-05-07T01:05:00;13.75;94.22
70336;SHT31;57756;47.408;18.940;2023-05-07T01:07:27;13.72;94.75
70336;SHT31;57756;47.408;18.940;2023-05-07T01:09:53;13.74;94.91
70336;SHT31;57756;47.408;18.940;2023-05-07T01:12:19;13.77;94.21
70336;SHT31;57756;47.408;18.940;2023-05-07T01:14:44;13.68;94.77
70336;SHT31;57756;47.408;18.940;2023-05-07T01:17:10;13.71;94.36
70336;SHT31;57756;47.408;18.940;2023-05-07T01:19:35;13.64;95.09
70336;SHT31;57756;47.408;18.940;2023-05-07T01:22:04;13.65;94.85
70336;SHT31;57756;47.408;18.940;2023-05-07T01:24:32;13.65;95.17
70336;SHT31;57756;47.408;18.940;2023-05-07T01:26:58;13.64;94.93
70336;SHT31;57756;47.408;18.940;2023-05-07T01:29:24;13.61;95.30
70336;SHT31;57756;47.408;18.940;2023-05-07T01:31:50;13.53;95.38
70336;SHT31;57756;47.408;18.940;2023-05-07T01:34:17;13.48;94.75
70336;SHT31;57756;47.408;18.940;2023-05-07T01:36:44;13.44;95.52
70336;SHT31;57756;47.408;18.940;2023-05-07T01:39:10;13.36;95.05
70336;SHT31;57756;47.408;18.940;2023-05-07T01:41:36;13.39;94.73
70336;SHT31;57756;47.408;18.940;2023-05-07T01:44:03;13.39;94.47
70336;SHT31;57756;47.408;18.940;2023-05-07T01:46:30;13.33;95.40
70336;SHT31;57756;47.408;18.940;2023-05-07T01:48:56;13.23;95.35
70336;SHT31;57756;47.408;18.940;2023-05-07T01:51:22;13.22;95.89
70336;SHT31;57756;47.408;18.940;2023-05-07T01:53:47;13.19;95.42
70336;SHT31;57756;47.408;18.940;2023-05-07T01:56:19;13.13;96.25
70336;SHT31;57756;47.408;18.940;2023-05-07T01:58:45;13.13;96.17
70336;SHT31;57756;47.408;18.940;2023-05-07T02:01:13;13.10;95.98
70336;SHT31;57756;47.408;18.940;2023-05-07T02:03:38;13.06;96.46
70336;SHT31;57756;47.408;18.940;2023-05-07T02:06:04;13.03;96.73
70336;SHT31;57756;47.408;18.940;2023-05-07T02:08:29;13.00;96.30
70336;SHT31;57756;47.408;18.940;2023-05-07T02:10:55;12.97;96.49
70336;SHT31;57756;47.408;18.940;2023-05-07T02:13:21;12.99;96.58
70336;SHT31;57756;47.408;18.940;2023-05-07T02:15:47;12.99;96.21
70336;SHT31;57756;47.408;18.940;2023-05-07T02:18:16;12.96;96.35
70336;SHT31;57756;47.408;18.940;2023-05-07T02:20:42;12.93;96.59
70336;SHT31;57756;47.408;18.940;2023-05-07T02:23:07;12.89;96.81
70336;SHT31;57756;47.408;18.940;2023-05-07T02:25:33;12.88;96.90
70336;SHT31;57756;47.408;18.940;2023-05-07T02:27:58;12.85;96.76
70336;SHT31;57756;47.408;18.940;2023-05-07T02:30:24;12.82;96.95
70336;SHT31;57756;47.408;18.940;2023-05-07T02:32:50;12.84;96.85
70336;SHT31;57756;47.408;18.940;2023-05-07T02:35:16;12.82;96.87
70336;SHT31;57756;47.408;18.940;2023-05-07T02:37:41;12.75;97.44
70336;SHT31;57756;47.408;18.940;2023-05-07T02:40:07;12.74;97.41
70336;SHT31;57756;47.408;18.940;2023-05-07T02:42:33;12.81;97.87
70336;SHT31;57756;47.408;18.940;2023-05-07T02:44:58;12.88;97.76
70336;SHT31;57756;47.408;18.940;2023-05-07T02:47:24;12.95;97.41
70336;SHT31;57756;47.408;18.940;2023-05-07T02:49:52;12.99;97.20
70336;SHT31;57756;47.408;18.940;2023-05-07T02:52:17;13.03;97.11
70336;SHT31;57756;47.408;18.940;2023-05-07T02:54:43;13.12;97.04
70336;SHT31;57756;47.408;18.940;2023-05-07T02:57:08;13.14;96.77
70336;SHT31;57756;47.408;18.940;2023-05-07T02:59:34;13.23;96.87
70336;SHT31;57756;47.408;18.940;2023-05-07T03:01:59;13.30;96.48
70336;SHT31;57756;47.408;18.940;2023-05-07T03:04:25;13.32;96.61
70336;SHT31;57756;47.408;18.940;2023-05-07T03:06:50;13.33;96.18
70336;SHT31;57756;47.408;18.940;2023-05-07T03:09:16;13.34;96.36
70336;SHT31;57756;47.408;18.940;2023-05-07T03:11:42;13.40;95.89
70336;SHT31;57756;47.408;18.940;2023-05-07T03:14:07;13.40;96.21
70336;SHT31;57756;47.408;18.940;2023-05-07T03:16:33;13.40;96.41
70336;SHT31;57756;47.408;18.940;2023-05-07T03:18:58;13.44;96.34
70336;SHT31;57756;47.408;18.940;2023-05-07T03:21:24;13.43;96.01
70336;SHT31;57756;47.408;18.940;2023-05-07T03:23:51;13.42;96.62
70336;SHT31;57756;47.408;18.940;2023-05-07T03:26:16;13.40;96.59
70336;SHT31;57756;47.408;18.940;2023-05-07T03:28:41;13.40;96.54
70336;SHT31;57756;47.408;18.940;2023-05-07T03:31:07;13.34;96.77
70336;SHT31;57756;47.408;18.940;2023-05-07T03:33:33;13.46;96.18
70336;SHT31;57756;47.408;18.940;2023-05-07T03:36:00;13.46;96.10
70336;SHT31;57756;47.408;18.940;2023-05-07T03:38:25;13.51;95.53
70336;SHT31;57756;47.408;18.940;2023-05-07T03:40:51;13.47;96.18
70336;SHT31;57756;47.408;18.940;2023-05-07T03:43:17;13.47;95.54
70336;SHT31;57756;47.408;18.940;2023-05-07T03:45:42;13.42;96.07
70336;SHT31;57756;47.408;18.940;2023-05-07T03:48:08;13.43;96.19
70336;SHT31;57756;47.408;18.940;2023-05-07T03:50:33;13.39;96.12
70336;SHT31;57756;47.408;18.940;2023-05-07T03:52:59;13.36;96.13
70336;SHT31;57756;47.408;18.940;2023-05-07T03:55:24;13.37;96.09
70336;SHT31;57756;47.408;18.940;2023-05-07T03:57:50;13.33;95.70
70336;SHT31;57756;47.408;18.940;2023-05-07T04:00:16;13.30;96.09
70336;SHT31;57756;47.408;18.940;2023-05-07T04:02:41;13.26;96.57
70336;SHT31;57756;47.408;18.940;2023-05-07T04:05:07;13.27;96.60
70336;SHT31;57756;47.408;18.940;2023-05-07T04:07:33;13.26;96.65
70336;SHT31;57756;47.408;18.940;2023-05-07T04:09:58;13.26;95.98
70336;SHT31;57756;47.408;18.940;2023-05-07T04:12:24;13.26;96.20
70336;SHT31;57756;47.408;18.940;2023-05-07T04:14:49;13.23;96.50
70336;SHT31;57756;47.408;18.940;2023-05-07T04:17:15;13.26;96.61
70336;SHT31;57756;47.408;18.940;2023-05-07T04:19:40;13.37;96.89
70336;SHT31;57756;47.408;18.940;2023-05-07T04:22:10;13.39;96.71
70336;SHT31;57756;47.408;18.940;2023-05-07T04:24:36;13.48;96.83
70336;SHT31;57756;47.408;18.940;2023-05-07T04:27:01;13.57;96.66
70336;SHT31;57756;47.408;18.940;2023-05-07T04:29:27;13.71;95.94
70336;SHT31;57756;47.408;18.940;2023-05-07T04:31:53;13.85;95.80
70336;SHT31;57756;47.408;18.940;2023-05-07T04:34:20;14.06;95.10
70336;SHT31;57756;47.408;18.940;2023-05-07T04:36:46;14.29;94.98
70336;SHT31;57756;47.408;18.940;2023-05-07T04:39:13;14.51;94.78
70336;SHT31;57756;47.408;18.940;2023-05-07T04:41:38;14.78;94.17
70336;SHT31;57756;47.408;18.940;2023-05-07T04:44:04;14.94;93.36
70336;SHT31;57756;47.408;18.940;2023-05-07T04:46:30;15.16;93.35
70336;SHT31;57756;47.408;18.940;2023-05-07T04:48:55;15.36;93.19
70336;SHT31;57756;47.408;18.940;2023-05-07T04:51:21;15.46;92.02
70336;SHT31;57756;47.408;18.940;2023-05-07T04:53:48;15.73;91.97
70336;SHT31;57756;47.408;18.940;2023-05-07T04:56:13;15.90;91.25
70336;SHT31;57756;47.408;18.940;2023-05-07T04:58:39;16.05;90.90
70336;SHT31;57756;47.408;18.940;2023-05-07T05:01:05;16.08;90.75
70336;SHT31;57756;47.408;18.940;2023-05-07T05:03:30;16.14;90.35
70336;SHT31;57756;47.408;18.940;2023-05-07T05:05:55;16.07;90.22
70336;SHT31;57756;47.408;18.940;2023-05-07T05:08:24;16.02;89.69
70336;SHT31;57756;47.408;18.940;2023-05-07T05:10:50;15.93;90.04
70336;SHT31;57756;47.408;18.940;2023-05-07T05:13:15;15.93;91.08
70336;SHT31;57756;47.408;18.940;2023-05-07T05:15:41;15.87;90.12
70336;SHT31;57756;47.408;18.940;2023-05-07T05:18:06;15.90;89.49
70336;SHT31;57756;47.408;18.940;2023-05-07T05:20:32;15.93;90.20
70336;SHT31;57756;47.408;18.940;2023-05-07T05:22:57;15.98;90.11
70336;SHT31;57756;47.408;18.940;2023-05-07T05:25:22;16.15;89.68
70336;SHT31;57756;47.408;18.940;2023-05-07T05:27:48;16.35;88.89
70336;SHT31;57756;47.408;18.940;2023-05-07T05:30:13;16.51;88.55
70336;SHT31;57756;47.408;18.940;2023-05-07T05:32:39;16.83;87.92
70336;SHT31;57756;47.408;18.940;2023-05-07T05:35:05;17.12;86.57
70336;SHT31;57756;47.408;18.940;2023-05-07T05:37:31;17.52;85.20
70336;SHT31;57756;47.408;18.940;2023-05-07T05:39:57;17.80;84.25
70336;SHT31;57756;47.408;18.940;2023-05-07T05:42:22;18.08;84.35
70336;SHT31;57756;47.408;18.940;2023-05-07T05:44:48;18.62;84.41
70336;SHT31;57756;47.408;18.940;2023-05-07T05:47:13;19.06;82.88
70336;SHT31;57756;47.408;18.940;2023-05-07T05:49:39;19.35;80.41
70336;SHT31;57756;47.408;18.940;2023-05-07T05:52:04;19.55;79.88
70336;SHT31;57756;47.408;18.940;2023-05-07T05:54:30;19.64;80.12
70336;SHT31;57756;47.408;18.940;2023-05-07T05:56:55;19.71;79.66
70336;SHT31;57756;47.408;18.940;2023-05-07T05:59:21;20.02;79.12
70336;SHT31;57756;47.408;18.940;2023-05-07T06:01:47;20.24;78.91
70336;SHT31;57756;47.408;18.940;2023-05-07T06:04:13;20.47;77.87
70336;SHT31;57756;47.408;18.940;2023-05-07T06:06:38;20.71;76.34
70336;SHT31;57756;47.408;18.940;2023-05-07T06:09:03;20.99;74.63
70336;SHT31;57756;47.408;18.940;2023-05-07T06:11:29;21.02;73.95
70336;SHT31;57756;47.408;18.940;2023-05-07T06:13:55;21.23;74.28
70336;SHT31;57756;47.408;18.940;2023-05-07T06:16:20;21.19;72.90
70336;SHT31;57756;47.408;18.940;2023-05-07T06:18:46;21.46;73.83
70336;SHT31;57756;47.408;18.940;2023-05-07T06:21:13;21.29;73.90
70336;SHT31;57756;47.408;18.940;2023-05-07T06:23:39;21.40;73.28
70336;SHT31;57756;47.408;18.940;2023-05-07T06:26:06;21.71;72.04
70336;SHT31;57756;47.408;18.940;2023-05-07T06:28:31;21.77;72.74
70336;SHT31;57756;47.408;18.940;2023-05-07T06:31:21;21.66;73.46
70336;SHT31;57756;47.408;18.940;2023-05-07T06:33:46;21.78;72.47
70336;SHT31;57756;47.408;18.940;2023-05-07T06:36:12;21.57;70.76
70336;SHT31;57756;47.408;18.940;2023-05-07T06:38:38;21.40;72.01
70336;SHT31;57756;47.408;18.940;2023-05-07T06:41:06;21.43;74.11
70336;SHT31;57756;47.408;18.940;2023-05-07T06:43:31;21.46;73.96
70336;SHT31;57756;47.408;18.940;2023-05-07T06:45:56;21.47;73.66
70336;SHT31;57756;47.408;18.940;2023-05-07T06:48:22;21.50;74.85
70336;SHT31;57756;47.408;18.940;2023-05-07T06:50:47;21.58;73.70
70336;SHT31;57756;47.408;18.940;2023-05-07T06:53:13;21.93;72.33
70336;SHT31;57756;47.408;18.940;2023-05-07T06:55:38;21.94;71.38
70336;SHT31;57756;47.408;18.940;2023-05-07T06:58:04;21.66;73.92
70336;SHT31;57756;47.408;18.940;2023-05-07T07:00:31;21.53;73.93
70336;SHT31;57756;47.408;18.940;2023-05-07T07:02:56;21.50;71.81
70336;SHT31;57756;47.408;18.940;2023-05-07T07:05:22;21.30;73.80
70336;SHT31;57756;47.408;18.940;2023-05-07T07:07:47;21.19;74.23
70336;SHT31;57756;47.408;18.940;2023-05-07T07:10:21;21.18;72.92
70336;SHT31;57756;47.408;18.940;2023-05-07T07:12:47;21.18;73.69
70336;SHT31;57756;47.408;18.940;2023-05-07T07:15:13;21.20;74.45
70336;SHT31;57756;47.408;18.940;2023-05-07T07:17:39;21.23;75.18
70336;SHT31;57756;47.408;18.940;2023-05-07T07:20:05;21.23;75.24
70336;SHT31;57756;47.408;18.940;2023-05-07T07:22:30;21.12;75.20
70336;SHT31;57756;47.408;18.940;2023-05-07T07:24:56;21.05;74.78
70336;SHT31;57756;47.408;18.940;2023-05-07T07:27:21;21.02;75.24
70336;SHT31;57756;47.408;18.940;2023-05-07T07:29:47;21.06;75.83
70336;SHT31;57756;47.408;18.940;2023-05-07T07:32:12;21.12;76.50
70336;SHT31;57756;47.408;18.940;2023-05-07T07:34:38;21.18;76.25
70336;SHT31;57756;47.408;18.940;2023-05-07T07:37:03;20.94;76.17
70336;SHT31;57756;47.408;18.940;2023-05-07T07:39:34;21.02;76.95
70336;SHT31;57756;47.408;18.940;2023-05-07T07:42:00;21.26;75.89
70336;SHT31;57756;47.408;18.940;2023-05-07T07:44:25;21.19;75.33
70336;SHT31;57756;47.408;18.940;2023-05-07T07:46:51;21.25;74.88
70336;SHT31;57756;47.408;18.940;2023-05-07T07:49:17;21.67;74.04
70336;SHT31;57756;47.408;18.940;2023-05-07T07:51:42;21.74;73.43
70336;SHT31;57756;47.408;18.940;2023-05-07T07:54:08;21.60;73.17
70336;SHT31;57756;47.408;18.940;2023-05-07T07:56:34;21.53;74.16
70336;SHT31;57756;47.408;18.940;2023-05-07T07:59:00;21.61;73.61
70336;SHT31;57756;47.408;18.940;2023-05-07T08:01:25;21.66;73.30
70336;SHT31;57756;47.408;18.940;2023-05-07T08:03:51;21.51;74.37
70336;SHT31;57756;47.408;18.940;2023-05-07T08:06:17;21.53;74.21
70336;SHT31;57756;47.408;18.940;2023-05-07T08:08:43;21.33;74.25
70336;SHT31;57756;47.408;18.940;2023-05-07T08:11:08;21.30;73.72
70336;SHT31;57756;47.408;18.940;2023-05-07T08:13:34;21.26;73.95
70336;SHT31;57756;47.408;18.940;2023-05-07T08:16:00;21.22;73.88
70336;SHT31;57756;47.408;18.940;2023-05-07T08:18:26;21.36;73.52
70336;SHT31;57756;47.408;18.940;2023-05-07T08:20:53;21.35;74.39
70336;SHT31;57756;47.408;18.940;2023-05-07T08:23:19;21.35;74.37
70336;SHT31;57756;47.408;18.940;2023-05-07T08:25:44;21.35;74.96
70336;SHT31;57756;47.408;18.940;2023-05-07T08:28:09;21.26;75.25
70336;SHT31;57756;47.408;18.940;2023-05-07T08:30:35;21.30;75.04
70336;SHT31;57756;47.408;18.940;2023-05-07T08:33:00;21.30;75.68
70336;SHT31;57756;47.408;18.940;2023-05-07T08:35:26;21.32;75.19
70336;SHT31;57756;47.408;18.940;2023-05-07T08:37:53;21.25;76.45
70336;SHT31;57756;47.408;18.940;2023-05-07T08:40:18;21.42;75.51
70336;SHT31;57756;47.408;18.940;2023-05-07T08:42:45;21.42;75.25
70336;SHT31;57756;47.408;18.940;2023-05-07T08:45:11;21.37;76.29
70336;SHT31;57756;47.408;18.940;2023-05-07T08:47:44;21.36;75.75
70336;SHT31;57756;47.408;18.940;2023-05-07T08:50:12;21.39;76.22
70336;SHT31;57756;47.408;18.940;2023-05-07T08:52:39;21.58;76.10
70336;SHT31;57756;47.408;18.940;2023-05-07T08:55:06;21.58;75.86
70336;SHT31;57756;47.408;18.940;2023-05-07T08:57:32;21.91;75.47
70336;SHT31;57756;47.408;18.940;2023-05-07T08:59:57;22.18;74.98
70336;SHT31;57756;47.408;18.940;2023-05-07T09:02:23;22.15;73.30
70336;SHT31;57756;47.408;18.940;2023-05-07T09:04:48;22.55;74.05
70336;SHT31;57756;47.408;18.940;2023-05-07T09:07:14;22.98;71.29
70336;SHT31;57756;47.408;18.940;2023-05-07T09:09:39;23.17;71.20
70336;SHT31;57756;47.408;18.940;2023-05-07T09:12:05;22.91;70.20
70336;SHT31;57756;47.408;18.940;2023-05-07T09:14:32;22.77;71.44
70336;SHT31;57756;47.408;18.940;2023-05-07T09:16:57;22.86;71.00
70336;SHT31;57756;47.408;18.940;2023-05-07T09:19:24;23.00;70.72
70336;SHT31;57756;47.408;18.940;2023-05-07T09:21:50;23.18;70.21
70336;SHT31;57756;47.408;18.940;2023-05-07T09:24:22;23.82;69.29
70336;SHT31;57756;47.408;18.940;2023-05-07T09:26:48;23.93;67.22
70336;SHT31;57756;47.408;18.940;2023-05-07T09:29:15;24.82;67.31
70336;SHT31;57756;47.408;18.940;2023-05-07T09:31:40;24.97;66.78
70336;SHT31;57756;47.408;18.940;2023-05-07T09:34:06;25.12;63.87
70336;SHT31;57756;47.408;18.940;2023-05-07T09:36:32;24.79;64.52
70336;SHT31;57756;47.408;18.940;2023-05-07T09:38:59;24.75;63.15
70336;SHT31;57756;47.408;18.940;2023-05-07T09:41:26;24.67;63.83
70336;SHT31;57756;47.408;18.940;2023-05-07T09:43:55;25.40;63.77
70336;SHT31;57756;47.408;18.940;2023-05-07T09:46:25;25.65;61.11
70336;SHT31;57756;47.408;18.940;2023-05-07T09:48:52;25.64;60.16
70336;SHT31;57756;47.408;18.940;2023-05-07T09:53:52;25.03;61.75
70336;SHT31;57756;47.408;18.940;2023-05-07T09:56:18;25.02;61.12
70336;SHT31;57756;47.408;18.940;2023-05-07T09:58:45;24.92;62.24
70336;SHT31;57756;47.408;18.940;2023-05-07T10:01:12;24.76;63.52
70336;SHT31;57756;47.408;18.940;2023-05-07T10:03:40;24.49;63.45
70336;SHT31;57756;47.408;18.940;2023-05-07T10:06:08;24.18;62.88
70336;SHT31;57756;47.408;18.940;2023-05-07T10:08:35;23.90;64.26
70336;SHT31;57756;47.408;18.940;2023-05-07T10:11:01;23.46;66.08
70336;SHT31;57756;47.408;18.940;2023-05-07T10:13:27;23.45;65.97
70336;SHT31;57756;47.408;18.940;2023-05-07T10:15:52;23.44;65.74
70336;SHT31;57756;47.408;18.940;2023-05-07T10:18:20;23.28;67.10
70336;SHT31;57756;47.408;18.940;2023-05-07T10:20:51;23.14;68.31
70336;SHT31;57756;47.408;18.940;2023-05-07T10:23:23;23.24;69.57
70336;SHT31;57756;47.408;18.940;2023-05-07T10:25:50;22.98;68.78
70336;SHT31;57756;47.408;18.940;2023-05-07T10:28:16;22.89;69.83
70336;SHT31;57756;47.408;18.940;2023-05-07T10:31:04;22.93;69.98
70336;SHT31;57756;47.408;18.940;2023-05-07T10:33:32;22.69;69.99
70336;SHT31;57756;47.408;18.940;2023-05-07T10:36:00;22.87;70.72
70336;SHT31;57756;47.408;18.940;2023-05-07T10:38:27;22.93;70.21
70336;SHT31;57756;47.408;18.940;2023-05-07T10:40:53;23.03;69.21
70336;SHT31;57756;47.408;18.940;2023-05-07T10:43:19;22.93;69.41
70336;SHT31;57756;47.408;18.940;2023-05-07T10:51:34;22.86;66.00
70336;SHT31;57756;47.408;18.940;2023-05-07T10:56:35;22.76;65.12
70336;SHT31;57756;47.408;18.940;2023-05-07T11:02:00;23.52;63.75
70336;SHT31;57756;47.408;18.940;2023-05-07T11:04:28;24.67;62.82
70336;SHT31;57756;47.408;18.940;2023-05-07T11:15:07;26.65;60.03
70336;SHT31;57756;47.408;18.940;2023-05-07T11:17:34;26.64;56.22
70336;SHT31;57756;47.408;18.940;2023-05-07T11:20:03;26.91;57.37
70336;SHT31;57756;47.408;18.940;2023-05-07T11:25:05;26.96;54.27
70336;SHT31;57756;47.408;18.940;2023-05-07T11:27:32;26.78;53.66
70336;SHT31;57756;47.408;18.940;2023-05-07T11:29:58;26.65;56.81
70336;SHT31;57756;47.408;18.940;2023-05-07T11:32:27;26.60;56.37
70336;SHT31;57756;47.408;18.940;2023-05-07T11:34:54;26.27;54.80
70336;SHT31;57756;47.408;18.940;2023-05-07T11:37:20;26.56;55.56
70336;SHT31;57756;47.408;18.940;2023-05-07T11:39:46;26.83;53.52
70336;SHT31;57756;47.408;18.940;2023-05-07T11:42:31;26.57;53.25
70336;SHT31;57756;47.408;18.940;2023-05-07T11:44:57;26.74;54.66
70336;SHT31;57756;47.408;18.940;2023-05-07T11:47:23;26.19;53.00
70336;SHT31;57756;47.408;18.940;2023-05-07T11:49:52;26.20;53.36
70336;SHT31;57756;47.408;18.940;2023-05-07T11:52:18;26.47;54.08
70336;SHT31;57756;47.408;18.940;2023-05-07T11:54:51;26.80;51.84
70336;SHT31;57756;47.408;18.940;2023-05-07T11:57:17;26.94;51.58
70336;SHT31;57756;47.408;18.940;2023-05-07T11:59:43;27.16;53.42
70336;SHT31;57756;47.408;18.940;2023-05-07T12:02:15;26.98;52.64
70336;SHT31;57756;47.408;18.940;2023-05-07T12:04:41;27.29;52.78
70336;SHT31;57756;47.408;18.940;2023-05-07T12:07:14;27.38;52.02
70336;SHT31;57756;47.408;18.940;2023-05-07T12:09:41;27.70;53.13
70336;SHT31;57756;47.408;18.940;2023-05-07T12:12:06;27.84;52.55
70336;SHT31;57756;47.408;18.940;2023-05-07T12:14:32;27.61;50.81
70336;SHT31;57756;47.408;18.940;2023-05-07T12:17:00;27.59;50.24
70336;SHT31;57756;47.408;18.940;2023-05-07T12:19:29;27.88;51.46
70336;SHT31;57756;47.408;18.940;2023-05-07T12:21:56;27.97;49.91
70336;SHT31;57756;47.408;18.940;2023-05-07T12:24:22;27.74;49.58
70336;SHT31;57756;47.408;18.940;2023-05-07T12:26:48;28.05;50.93
70336;SHT31;57756;47.408;18.940;2023-05-07T12:29:13;27.86;51.00
70336;SHT31;57756;47.408;18.940;2023-05-07T12:31:42;27.66;49.63
70336;SHT31;57756;47.408;18.940;2023-05-07T12:34:07;28.19;49.24
70336;SHT31;57756;47.408;18.940;2023-05-07T12:36:40;28.38;48.50
70336;SHT31;57756;47.408;18.940;2023-05-07T12:39:06;27.97;49.53
70336;SHT31;57756;47.408;18.940;2023-05-07T12:41:51;27.96;51.04
70336;SHT31;57756;47.408;18.940;2023-05-07T12:44:17;27.70;51.21
70336;SHT31;57756;47.408;18.940;2023-05-07T12:46:42;27.15;53.01
70336;SHT31;57756;47.408;18.940;2023-05-07T12:49:08;26.58;53.35
70336;SHT31;57756;47.408;18.940;2023-05-07T12:51:35;26.41;53.81
70336;SHT31;57756;47.408;18.940;2023-05-07T12:54:00;26.44;55.67
70336;SHT31;57756;47.408;18.940;2023-05-07T12:56:26;26.83;53.92
70336;SHT31;57756;47.408;18.940;2023-05-07T12:58:51;26.78;54.92
70336;SHT31;57756;47.408;18.940;2023-05-07T13:01:17;26.98;54.04
70336;SHT31;57756;47.408;18.940;2023-05-07T13:03:48;27.02;53.25
70336;SHT31;57756;47.408;18.940;2023-05-07T13:06:15;27.11;50.98
70336;SHT31;57756;47.408;18.940;2023-05-07T13:08:41;26.81;50.71
70336;SHT31;57756;47.408;18.940;2023-05-07T13:11:11;26.37;53.44
70336;SHT31;57756;47.408;18.940;2023-05-07T13:13:38;25.91;53.17
70336;SHT31;57756;47.408;18.940;2023-05-07T13:16:06;25.37;54.96
70336;SHT31;57756;47.408;18.940;2023-05-07T13:18:33;24.96;54.09
70336;SHT31;57756;47.408;18.940;2023-05-07T13:20:59;24.90;54.56
70336;SHT31;57756;47.408;18.940;2023-05-07T13:23:25;25.13;55.62
70336;SHT31;57756;47.408;18.940;2023-05-07T13:25:51;24.93;55.02
70336;SHT31;57756;47.408;18.940;2023-05-07T13:28:19;25.26;57.00
70336;SHT31;57756;47.408;18.940;2023-05-07T13:30:45;25.30;54.64
70336;SHT31;57756;47.408;18.940;2023-05-07T13:33:11;25.41;56.26
70336;SHT31;57756;47.408;18.940;2023-05-07T13:35:37;25.47;55.22
70336;SHT31;57756;47.408;18.940;2023-05-07T13:38:03;25.43;56.06
70336;SHT31;57756;47.408;18.940;2023-05-07T13:40:28;25.20;56.79
70336;SHT31;57756;47.408;18.940;2023-05-07T13:42:56;25.02;56.58
70336;SHT31;57756;47.408;18.940;2023-05-07T13:45:21;24.97;56.84
70336;SHT31;57756;47.408;18.940;2023-05-07T13:47:50;24.73;55.85
70336;SHT31;57756;47.408;18.940;2023-05-07T13:50:16;24.76;56.07
70336;SHT31;57756;47.408;18.940;2023-05-07T13:52:45;24.75;56.35
70336;SHT31;57756;47.408;18.940;2023-05-07T13:55:20;24.82;56.71
70336;SHT31;57756;47.408;18.940;2023-05-07T13:57:46;24.86;58.25
70336;SHT31;57756;47.408;18.940;2023-05-07T14:00:13;25.02;56.85
70336;SHT31;57756;47.408;18.940;2023-05-07T14:02:39;24.31;56.59
70336;SHT31;57756;47.408;18.940;2023-05-07T14:05:05;24.22;57.29
70336;SHT31;57756;47.408;18.940;2023-05-07T14:07:31;24.22;58.21
70336;SHT31;57756;47.408;18.940;2023-05-07T14:09:57;24.22;57.36
70336;SHT31;57756;47.408;18.940;2023-05-07T14:12:22;24.31;57.57
70336;SHT31;57756;47.408;18.940;2023-05-07T14:14:48;24.31;56.42
70336;SHT31;57756;47.408;18.940;2023-05-07T14:17:16;24.20;57.25
70336;SHT31;57756;47.408;18.940;2023-05-07T14:19:42;24.31;57.48
70336;SHT31;57756;47.408;18.940;2023-05-07T14:22:07;24.31;56.88
70336;SHT31;57756;47.408;18.940;2023-05-07T14:24:33;23.99;55.88
70336;SHT31;57756;47.408;18.940;2023-05-07T14:26:58;23.73;56.93
70336;SHT31;57756;47.408;18.940;2023-05-07T14:29:24;23.58;57.65
70336;SHT31;57756;47.408;18.940;2023-05-07T14:31:49;23.58;57.67
70336;SHT31;57756;47.408;18.940;2023-05-07T14:34:15;23.66;57.73
70336;SHT31;57756;47.408;18.940;2023-05-07T14:36:40;23.77;58.21
70336;SHT31;57756;47.408;18.940;2023-05-07T14:39:06;23.80;57.55
70336;SHT31;57756;47.408;18.940;2023-05-07T14:41:31;23.69;56.80
70336;SHT31;57756;47.408;18.940;2023-05-07T14:43:58;23.83;57.48
70336;SHT31;57756;47.408;18.940;2023-05-07T14:46:24;23.79;57.91
70336;SHT31;57756;47.408;18.940;2023-05-07T14:48:50;23.72;57.57
70336;SHT31;57756;47.408;18.940;2023-05-07T14:51:15;23.63;58.26
70336;SHT31;57756;47.408;18.940;2023-05-07T14:53:41;23.59;59.19
70336;SHT31;57756;47.408;18.940;2023-05-07T14:56:07;23.52;58.15
70336;SHT31;57756;47.408;18.940;2023-05-07T14:58:33;23.34;58.76
70336;SHT31;57756;47.408;18.940;2023-05-07T15:00:59;23.34;59.10
70336;SHT31;57756;47.408;18.940;2023-05-07T15:03:25;23.38;59.48
70336;SHT31;57756;47.408;18.940;2023-05-07T15:05:50;23.46;59.41
70336;SHT31;57756;47.408;18.940;2023-05-07T15:08:17;23.48;59.08
70336;SHT31;57756;47.408;18.940;2023-05-07T15:10:42;23.29;57.70
70336;SHT31;57756;47.408;18.940;2023-05-07T15:13:11;23.37;58.97
70336;SHT31;57756;47.408;18.940;2023-05-07T15:15:40;23.27;59.64
70336;SHT31;57756;47.408;18.940;2023-05-07T15:18:06;23.04;60.76
70336;SHT31;57756;47.408;18.940;2023-05-07T15:20:32;23.04;60.33
70336;SHT31;57756;47.408;18.940;2023-05-07T15:22:57;22.87;60.96
70336;SHT31;57756;47.408;18.940;2023-05-07T15:25:23;22.84;61.00
70336;SHT31;57756;47.408;18.940;2023-05-07T15:27:49;22.79;60.63
70336;SHT31;57756;47.408;18.940;2023-05-07T15:30:15;22.83;60.40
70336;SHT31;57756;47.408;18.940;2023-05-07T15:32:41;22.69;60.05
70336;SHT31;57756;47.408;18.940;2023-05-07T15:35:07;22.62;59.52